createdAt,value
2022-11-19T00:04:51.804Z,30.85
2022-11-19T00:09:48.040Z,30.45
2022-11-19T00:14:44.269Z,30.52
2022-11-19T00:19:40.536Z,29.63
2022-11-19T00:24:36.804Z,30.60
2022-11-19T00:29:32.989Z,30.67
2022-11-19T00:34:29.454Z,32.17
2022-11-19T00:39:25.636Z,30.15
2022-11-19T00:44:22.086Z,32.67
2022-11-19T00:49:18.549Z,30.52
2022-11-19T00:54:14.919Z,33.45
2022-11-19T00:59:11.097Z,32.70
2022-11-19T01:04:07.370Z,33.25
2022-11-19T01:09:03.746Z,33.00
2022-11-19T01:14:01.827Z,33.10
2022-11-19T01:18:58.457Z,33.65
2022-11-19T01:23:54.750Z,34.72
2022-11-19T01:28:51.018Z,36.17
2022-11-19T01:33:47.922Z,33.78
2022-11-19T01:38:44.197Z,35.97
2022-11-19T01:43:46.667Z,34.58
2022-11-19T01:48:54.641Z,37.13
2022-11-19T01:53:51.621Z,32.67
2022-11-19T01:58:49.949Z,34.83
2022-11-19T02:03:46.646Z,34.72
2022-11-19T02:08:46.920Z,36.47
2022-11-19T02:13:50.688Z,37.50
2022-11-19T02:19:05.680Z,35.65
2022-11-19T02:24:28.044Z,36.38
2022-11-19T02:29:30.194Z,36.67
2022-11-19T02:34:32.615Z,36.85
2022-11-19T02:44:52.560Z,34.95
2022-11-19T02:49:51.033Z,35.88
2022-11-19T02:54:47.234Z,33.70
2022-11-19T03:00:05.517Z,36.30
2022-11-19T03:05:03.237Z,34.25
2022-11-19T03:10:01.724Z,34.85
2022-11-19T03:15:24.283Z,36.38
2022-11-19T03:20:23.180Z,35.97
2022-11-19T03:25:25.391Z,34.15
2022-11-19T03:30:21.905Z,35.60
2022-11-19T03:35:22.968Z,36.22
2022-11-19T03:40:19.902Z,35.72
2022-11-19T03:45:19.161Z,35.70
2022-11-19T03:50:15.369Z,35.75
2022-11-19T03:55:11.630Z,36.78
2022-11-19T04:00:08.225Z,35.53
2022-11-19T04:05:04.572Z,35.45
2022-11-19T04:10:00.755Z,37.13
2022-11-19T04:14:57.000Z,37.72
2022-11-19T04:19:53.200Z,36.88
2022-11-19T04:24:49.415Z,36.90
2022-11-19T04:29:45.674Z,37.83
2022-11-19T04:34:41.917Z,37.22
2022-11-19T04:39:38.127Z,36.22
2022-11-19T04:44:34.352Z,37.13
2022-11-19T04:49:30.566Z,38.10
2022-11-19T04:54:26.772Z,38.85
2022-11-19T04:59:23.010Z,38.00
2022-11-19T05:04:19.239Z,37.50
2022-11-19T05:09:15.530Z,35.42
2022-11-19T05:14:11.876Z,39.00
2022-11-19T05:19:08.137Z,37.40
2022-11-19T05:24:04.463Z,37.45
2022-11-19T05:29:00.674Z,40.55
2022-11-19T05:33:56.891Z,40.30
2022-11-19T05:38:53.092Z,40.15
2022-11-19T05:43:49.334Z,43.25
2022-11-19T05:48:45.515Z,44.95
2022-11-19T05:53:42.122Z,46.92
2022-11-19T05:58:38.396Z,44.25
2022-11-19T06:03:34.626Z,44.95
2022-11-19T06:08:30.854Z,44.10
2022-11-19T06:13:27.083Z,41.17
2022-11-19T06:18:23.276Z,41.45
2022-11-19T06:23:19.565Z,42.65
2022-11-19T06:28:15.749Z,43.10
2022-11-19T06:33:11.947Z,44.33
2022-11-19T06:38:08.145Z,41.83
2022-11-19T06:43:05.008Z,38.25
2022-11-19T06:48:01.234Z,37.20
2022-11-19T06:52:57.469Z,33.83
2022-11-19T06:57:53.728Z,33.30
2022-11-19T07:02:49.921Z,34.35
2022-11-19T07:07:46.151Z,35.38
2022-11-19T07:12:42.368Z,36.90
2022-11-19T07:17:38.588Z,35.17
2022-11-19T07:22:34.844Z,34.83
2022-11-19T07:27:31.066Z,37.85
2022-11-19T07:32:27.242Z,38.35
2022-11-19T07:37:23.809Z,40.53
2022-11-19T07:42:38.769Z,39.28
2022-11-19T07:47:35.124Z,40.13
2022-11-19T07:52:31.359Z,40.08
2022-11-19T07:57:30.409Z,37.50
2022-11-19T08:02:26.984Z,39.70
2022-11-19T08:07:23.209Z,35.85
2022-11-19T08:12:19.493Z,42.72
2022-11-19T08:17:34.346Z,37.80
2022-11-19T08:22:30.526Z,33.30
2022-11-19T08:27:26.733Z,32.15
2022-11-19T08:32:23.134Z,29.42
2022-11-19T08:37:19.413Z,29.55
2022-11-19T08:42:33.971Z,28.30
2022-11-19T08:47:30.196Z,27.05
2022-11-19T08:52:26.418Z,27.30
2022-11-19T08:57:23.034Z,27.77
2022-11-19T09:02:19.332Z,27.55
2022-11-19T09:07:15.560Z,28.17
2022-11-19T09:12:11.826Z,27.13
2022-11-19T09:17:08.041Z,29.63
2022-11-19T09:22:04.307Z,27.52
2022-11-19T09:27:02.565Z,29.58
2022-11-19T09:31:58.924Z,30.15
2022-11-19T09:36:55.217Z,30.45
2022-11-19T09:41:54.416Z,29.52
2022-11-19T09:47:01.614Z,30.90
2022-11-19T09:52:01.142Z,32.72
2022-11-19T09:57:04.257Z,34.55
2022-11-19T10:02:00.839Z,35.00
2022-11-19T10:06:56.994Z,39.95
2022-11-19T10:11:55.993Z,39.88
2022-11-19T10:16:57.387Z,41.55
2022-11-19T10:21:58.393Z,39.20
2022-11-19T10:27:07.272Z,38.25
2022-11-19T10:32:22.069Z,36.58
2022-11-19T10:37:20.107Z,32.72
2022-11-19T10:42:24.380Z,30.75
2022-11-19T10:47:32.653Z,25.38
2022-11-19T10:52:34.817Z,25.27
2022-11-19T10:57:32.151Z,24.20
2022-11-19T11:02:28.562Z,22.73
2022-11-19T11:07:48.644Z,24.27
2022-11-19T11:13:05.017Z,23.63
2022-11-19T11:18:05.575Z,24.17
2022-11-19T11:23:18.746Z,23.92
2022-11-19T11:28:16.443Z,22.23
2022-11-19T11:33:24.879Z,23.92
2022-11-19T11:38:22.423Z,22.20
2022-11-19T11:43:18.710Z,20.58
2022-11-19T11:48:18.387Z,20.15
2022-11-19T11:53:15.437Z,18.83
2022-11-19T11:58:26.966Z,16.50
2022-11-19T12:03:23.488Z,18.73
2022-11-19T12:08:38.376Z,16.00
2022-11-19T12:13:37.427Z,13.80
2022-11-19T12:18:43.269Z,14.32
2022-11-19T12:23:58.286Z,11.65
2022-11-19T12:28:57.385Z,10.95
2022-11-19T12:34:12.158Z,10.75
2022-11-19T12:39:30.030Z,10.13
2022-11-19T12:44:29.207Z,9.10
2022-11-19T12:49:37.993Z,9.07
2022-11-19T12:54:46.347Z,8.32
2022-11-19T12:59:48.397Z,9.52
2022-11-19T13:04:47.685Z,10.48
2022-11-19T13:09:47.102Z,9.80
2022-11-19T13:14:52.010Z,10.35
2022-11-19T13:19:56.592Z,9.57
2022-11-19T13:24:54.511Z,9.53
2022-11-19T13:29:54.760Z,10.00
2022-11-19T13:35:14.205Z,9.75
2022-11-19T13:40:22.688Z,11.82
2022-11-19T13:45:19.088Z,11.23
2022-11-19T13:50:15.254Z,9.00
2022-11-19T13:55:30.507Z,9.70
2022-11-19T14:00:27.863Z,8.93
2022-11-19T14:05:48.616Z,8.90
2022-11-19T14:11:02.915Z,9.10
2022-11-19T14:16:31.702Z,8.00
2022-11-19T14:21:48.425Z,8.68
2022-11-19T14:26:52.146Z,9.43
2022-11-19T14:32:00.955Z,9.18
2022-11-19T14:36:58.410Z,11.90
2022-11-19T14:42:16.250Z,10.27
2022-11-19T14:47:28.594Z,10.88
2022-11-19T14:52:29.928Z,10.85
2022-11-19T14:57:27.335Z,11.68
2022-11-19T15:02:29.337Z,12.80
2022-11-19T15:07:54.301Z,14.27
2022-11-19T15:13:01.609Z,14.13
2022-11-19T15:18:02.237Z,15.48
2022-11-19T15:23:21.276Z,17.00
2022-11-19T15:28:20.507Z,16.63
2022-11-19T15:33:27.022Z,15.57
2022-11-19T15:38:23.381Z,16.30
2022-11-19T15:43:19.571Z,16.83
2022-11-19T15:48:19.122Z,20.85
2022-11-19T15:53:20.210Z,19.05
2022-11-19T15:58:18.315Z,19.80
2022-11-19T16:03:15.037Z,23.02
2022-11-19T16:08:13.261Z,22.85
2022-11-19T16:13:57.831Z,24.65
2022-11-19T16:24:09.011Z,25.25
2022-11-19T16:29:05.490Z,27.75
2022-11-19T16:34:01.722Z,25.90
2022-11-19T16:38:58.393Z,25.88
2022-11-19T16:43:54.898Z,27.08
2022-11-19T16:48:55.554Z,26.25
2022-11-19T16:53:52.644Z,25.23
2022-11-19T16:58:49.868Z,24.80
2022-11-19T17:03:46.114Z,24.70
2022-11-19T17:08:53.749Z,28.25
2022-11-19T17:13:49.990Z,31.58
2022-11-19T17:18:46.222Z,31.88
2022-11-19T17:23:49.713Z,30.02
2022-11-19T17:28:48.478Z,31.40
2022-11-19T17:33:51.943Z,35.92
2022-11-19T17:38:48.560Z,36.85
2022-11-19T17:44:03.517Z,41.22
2022-11-19T17:48:59.696Z,42.20
2022-11-19T17:53:57.758Z,39.08
2022-11-19T17:58:54.718Z,39.35
2022-11-19T18:03:50.914Z,38.40
2022-11-19T18:08:47.292Z,38.92
2022-11-19T18:13:44.208Z,39.03
2022-11-19T18:18:40.424Z,40.47
2022-11-19T18:23:36.613Z,33.92
2022-11-19T18:28:33.464Z,33.40
2022-11-19T18:33:29.666Z,33.63
2022-11-19T18:38:26.159Z,32.85
2022-11-19T18:43:41.283Z,30.83
2022-11-19T18:48:37.549Z,31.15
2022-11-19T18:53:33.736Z,27.45
2022-11-19T18:58:30.192Z,27.88
2022-11-19T19:03:26.649Z,26.23
2022-11-19T19:08:22.869Z,25.50
2022-11-19T19:13:19.054Z,24.10
2022-11-19T19:18:15.286Z,23.48
2022-11-19T19:23:11.557Z,23.23
2022-11-19T19:28:07.841Z,24.88
2022-11-19T19:33:04.221Z,23.58
2022-11-19T19:38:00.477Z,23.33
2022-11-19T19:42:57.009Z,25.15
2022-11-19T19:47:53.224Z,26.75
2022-11-19T19:52:49.406Z,24.80
2022-11-19T19:57:45.588Z,26.20
2022-11-19T20:02:41.853Z,26.10
2022-11-19T20:07:38.088Z,25.80
2022-11-19T20:13:03.337Z,25.40
2022-11-19T20:17:59.718Z,23.60
2022-11-19T20:22:55.903Z,25.02
2022-11-19T20:27:52.129Z,22.83
2022-11-19T20:32:48.640Z,22.48
2022-11-19T20:37:45.080Z,27.75
2022-11-19T20:42:59.880Z,22.55
2022-11-19T20:47:56.184Z,22.42
2022-11-19T20:52:52.370Z,21.88
2022-11-19T20:57:48.923Z,20.38
2022-11-19T21:02:45.146Z,22.92
2022-11-19T21:07:41.412Z,21.42
2022-11-19T21:12:57.669Z,22.60
2022-11-19T21:17:54.439Z,21.27
2022-11-19T21:22:52.788Z,19.05
2022-11-19T21:27:49.070Z,19.00
2022-11-19T21:32:45.288Z,20.25
2022-11-19T21:37:41.516Z,19.33
2022-11-19T21:42:37.729Z,21.42
2022-11-19T21:47:34.012Z,19.10
2022-11-19T21:52:30.202Z,18.40
2022-11-19T21:57:28.002Z,16.50
2022-11-19T22:02:24.240Z,15.80
2022-11-19T22:07:20.448Z,15.45
2022-11-19T22:12:16.637Z,17.13
2022-11-19T22:17:12.863Z,16.25
2022-11-19T22:22:09.050Z,16.67
2022-11-19T22:27:05.276Z,15.68
2022-11-19T22:32:01.518Z,15.65
2022-11-19T22:36:57.760Z,15.75
2022-11-19T22:41:54.097Z,15.88
2022-11-19T22:46:50.469Z,15.65
2022-11-19T22:51:46.693Z,14.75
2022-11-19T22:56:43.064Z,14.85
2022-11-19T23:01:39.348Z,15.63
2022-11-19T23:06:36.202Z,13.65
2022-11-19T23:11:51.698Z,14.32
2022-11-19T23:16:48.033Z,14.68
2022-11-19T23:21:44.781Z,14.07
2022-11-19T23:26:41.026Z,14.65
2022-11-19T23:31:38.200Z,14.55
2022-11-19T23:36:35.815Z,15.27
2022-11-19T23:41:33.144Z,14.55
2022-11-19T23:46:30.464Z,13.25
2022-11-19T23:51:27.985Z,14.32
2022-11-19T23:56:24.836Z,14.98
